Latest Coastal Weather Observations for Cape Grim

IDV60701

Issued at 9:51 am EDT Sunday 23 February 2020 (issued every 10 minutes, with the page automatically refreshed every 10 minutes)

About coastal observations | Map of coastal stations | Coastal observations for VIC | Marine services | Other Formats
Station Details ID: 091331 Name: CAPE GRIM Lat: -40.68 Lon: 144.69 Height: 86.0 m
Data from the previous 72 hours. | See also: Recent months at Cape Grim
Date/Time
EDT
Wind Sea
Height
m
Swell Vis
km
Cloud Weather Temp
°C
Press
hPa
Rain since
9am
mm
Dir  Spd
kts
Gust
kts
Height
m
Period
s
Dir
23/09:30am ENE 16 20 - - - - - Partly cloudy - 17.2 1019.8 0.0
23/09:00am ENE 12 18 - - - - - - - 16.9 1020.0 0.0
23/08:30am E 10 13 - - - - - Partly cloudy - 14.6 1020.1 0.0
23/08:00am E 11 13 - - - - - Partly cloudy - 13.3 1020.3 0.0
23/07:30am E 11 13 - - - - - - - 12.3 1020.1 0.0
23/07:00am E 10 11 - - - - - Partly cloudy - 12.6 1020.3 0.0
23/06:30am E 11 12 - - - - - Partly cloudy - 12.4 1020.2 0.0
23/06:00am E 9 10 - - - - - Mostly clear - 12.2 1020.3 0.0
23/05:30am E 9 11 - - - - - Partly cloudy - 12.5 1020.4 0.0
23/05:00am SE 9 11 - - - - - Partly cloudy - 13.0 1020.6 0.0
23/04:30am SSE 9 10 - - - - - Partly cloudy - 12.0 1020.8 0.0
23/04:00am SSE 9 10 - - - - - Partly cloudy - 11.8 1021.0 0.0
23/03:30am SSE 9 10 - - - - - - - 11.7 1021.1 0.0
23/03:00am SSE 9 10 - - - - - Mostly clear - 11.9 1021.8 0.0
23/02:30am SSE 9 9 - - - - - Partly cloudy - 12.8 1022.1 0.0
23/02:00am SSE 8 9 - - - - - Cloudy - 13.0 1022.4 0.0
23/01:30am SSE 9 9 - - - - - Partly cloudy - 12.6 1022.4 0.0
23/01:00am S 5 7 - - - - - Partly cloudy - 13.1 1022.6 0.0
23/12:30am S 5 5 - - - - - - - 12.4 1022.7 0.0
23/12:00am S 5 6 - - - - - Partly cloudy - 12.5 1022.8 0.0
 
Date/Time
EDT
Wind Sea
Height
m
Swell Vis
km
Cloud Weather Temp
°C
Press
hPa
Rain since
9am
mm
Dir  Spd
kts
Gust
kts
Height
m
Period
s
Dir
22/11:30pm S 6 7 - - - - - Partly cloudy - 12.8 1022.9 0.0
22/11:00pm S 6 7 - - - - - - - 12.3 1023.2 0.0
22/10:30pm S 5 6 - - - - - - - 12.9 1023.3 0.0
22/10:00pm S 6 7 - - - - - - - 12.6 1023.4 0.0
22/09:30pm S 4 5 - - - - - - - 13.6 1023.4 0.0
22/09:00pm S 3 4 - - - - - - - 13.7 1023.4 0.0
22/08:30pm S 5 7 - - - - - - - 14.1 1023.0 0.0
22/08:00pm SSW 5 8 - - - - - - - 15.1 1022.9 0.0
22/07:30pm SW 7 8 - - - - - - - 15.8 1022.7 0.0
22/07:00pm SW 7 11 - - - - - Partly cloudy - 15.7 1022.8 0.0
22/06:30pm SSW 7 10 - - - - - Partly cloudy - 16.1 1022.8 0.0
22/06:00pm SW 8 11 - - - - - Cloudy - 16.4 1022.9 0.0
22/05:30pm SW 8 10 - - - - - Partly cloudy - 16.6 1023.1 0.0
22/05:00pm SW 8 10 - - - - - Partly cloudy - 17.9 1023.4 0.0
22/04:30pm SW 7 9 - - - - - - - 17.7 1023.6 0.0
22/04:00pm WSW 7 8 - - - - - - - 17.7 1023.7 0.0
22/03:30pm WSW 7 8 - - - - - - - 18.1 1023.9 0.0
22/03:00pm NW 8 10 - - - - - - - 18.3 1024.1 0.0
22/02:30pm NW 8 10 - - - - - - - 17.8 1024.5 0.0
22/02:00pm NW 7 10 - - - - - - - 18.2 1024.6 0.0
22/01:30pm NW 7 9 - - - - - - - 18.0 1024.6 0.0
22/01:00pm NW 7 9 - - - - - - - 17.9 1024.8 0.0
22/12:30pm W 5 7 - - - - - - - 17.9 1025.1 0.0
22/12:00pm NW 8 10 - - - - - - - 17.5 1025.1 0.0
22/11:30am NW 6 9 - - - - - - - 17.5 1025.2 0.0
22/11:00am E 6 8 - - - - - - - 17.4 1025.1 0.0
22/10:30am ENE 5 8 - - - - - - - 16.7 1025.0 0.0
22/10:00am E 5 8 - - - - - - - 15.9 1024.8 0.0
22/09:30am SE 7 8 - - - - - - - 14.9 1024.7 0.0
22/09:00am SE 7 9 - - - - - - - 13.9 1024.5 0.0
22/08:30am SE 9 10 - - - - - - - 13.2 1024.1 0.0
22/08:00am SE 9 10 - - - - - - - 12.4 1023.8 0.0
22/07:30am SE 10 11 - - - - - - - 11.5 1023.6 0.0
22/07:00am SSE 7 9 - - - - - - - 10.5 1023.5 0.0
22/06:30am SSE 9 10 - - - - - - - 10.6 1023.3 0.0
22/06:00am S 4 7 - - - - - - - 10.4 1023.0 0.0
22/05:30am S 9 12 - - - - - - - 10.9 1022.8 0.0
22/05:00am S 10 13 - - - - - - - 11.0 1022.9 0.0
22/04:30am S 10 15 - - - - - - - 11.0 1023.1 0.0
22/04:00am S 9 14 - - - - - - - 11.0 1023.1 0.0
22/03:30am S 9 11 - - - - - - - 11.6 1023.2 0.0
22/03:00am S 10 13 - - - - - - - 11.8 1023.2 0.0
22/02:30am S 8 10 - - - - - - - 11.4 1023.4 0.0
22/02:00am S 10 15 - - - - - - - 12.0 1023.4 0.0
22/01:30am S 12 15 - - - - - - - 12.3 1023.6 0.0
22/01:00am S 11 17 - - - - - - - 12.3 1023.5 0.0
22/12:30am S 11 14 - - - - - - - 12.3 1023.6 0.0
22/12:00am S 10 13 - - - - - - - 11.9 1023.7 0.0
 
Date/Time
EDT
Wind Sea
Height
m
Swell Vis
km
Cloud Weather Temp
°C
Press
hPa
Rain since
9am
mm
Dir  Spd
kts
Gust
kts
Height
m
Period
s
Dir
21/11:30pm S 11 14 - - - - - - - 11.9 1023.6 0.0
21/11:00pm S 11 15 - - - - - - - 12.1 1023.8 0.0
21/10:30pm S 11 14 - - - - - - - 12.5 1023.8 0.0
21/10:00pm S 13 17 - - - - - Partly cloudy - 13.0 1023.5 0.0
21/09:30pm S 12 17 - - - - - Partly cloudy - 13.2 1023.3 0.0
21/09:00pm SSW 14 19 - - - - - - - 13.2 1022.8 0.0
21/08:30pm SSW 14 18 - - - - - - - 13.3 1022.5 0.0
21/08:00pm SSW 15 19 - - - - - Partly cloudy - 13.5 1022.2 0.0
21/07:30pm SSW 14 21 - - - - - - - 13.9 1021.9 0.0
21/07:00pm SSW 17 22 - - - - - - - 14.2 1021.5 0.0
21/06:30pm SW 18 25 - - - - - Partly cloudy - 14.5 1021.2 0.0
21/06:00pm SW 16 23 - - - - - - - 14.7 1021.1 0.0
21/05:30pm SW 16 22 - - - - - - - 15.2 1021.0 0.0
21/05:00pm SW 17 23 - - - - - - - 14.8 1021.0 0.0
21/04:30pm SW 17 24 - - - - - - - 15.1 1021.0 0.0
21/04:00pm SW 17 23 - - - - - Partly cloudy - 15.4 1021.0 0.0
21/03:30pm SW 19 24 - - - - - Cloudy - 14.9 1021.1 0.0
21/03:00pm SW 18 24 - - - - - Mostly clear - 16.0 1021.1 0.0
21/02:30pm SW 17 23 - - - - - - - 16.0 1021.1 0.0
21/02:00pm SW 17 24 - - - - - - - 15.7 1021.0 0.0
21/01:30pm SW 16 22 - - - - - - - 15.7 1020.9 0.0
21/01:00pm SSW 16 21 - - - - - - - 15.6 1020.8 0.0
21/12:30pm SSW 15 20 - - - - - Partly cloudy - 15.8 1020.8 0.0
21/12:00pm SSW 15 22 - - - - - - - 15.6 1020.6 0.0
21/11:30am SSW 16 22 - - - - - - - 15.2 1020.3 0.0
21/11:00am SSW 18 23 - - - - - - - 15.3 1019.9 0.0
21/10:30am SSW 17 25 - - - - - - - 14.8 1019.8 0.0
21/10:00am SSW 19 25 - - - - - Partly cloudy - 14.2 1019.6 0.0
21/09:30am SSW 16 22 - - - - - Partly cloudy - 13.6 1019.2 0.0
21/09:00am SSW 16 24 - - - - - Cloudy - 12.8 1018.9 0.0
21/08:49am SSW 18 31 - - - - - Partly cloudy - 12.3 1018.8 0.0
21/08:43am SW 20 31 - - - - - Partly cloudy - 13.2 1018.6 0.0
21/08:30am SW 20 26 - - - - - Partly cloudy - 13.5 1018.5 0.0
21/08:00am SSW 17 24 - - - - - Cloudy - 14.2 1018.1 0.0
21/07:59am SSW 18 28 - - - - - Cloudy - 14.2 1018.1 0.0
21/07:30am SSW 19 26 - - - - - Cloudy - 13.8 1017.7 0.0
21/07:00am SSW 20 28 - - - - - Partly cloudy - 13.5 1017.2 0.0
21/06:49am SSW 18 29 - - - - - Partly cloudy - 13.5 1017.1 0.0
21/06:30am SSW 16 23 - - - - - Partly cloudy - 13.1 1016.9 0.0
21/06:00am SW 22 29 - - - - - Cloudy - 13.5 1016.7 0.0
21/05:42am SW 19 29 - - - - - Partly cloudy - 13.6 1016.5 0.0
21/05:30am SW 17 26 - - - - - Partly cloudy - 13.2 1016.4 0.0
21/05:20am SSW 17 27 - - - - - Partly cloudy - 13.4 1016.4 0.0
21/05:00am SW 17 23 - - - - - Partly cloudy - 13.6 1016.3 0.0
21/04:30am SSW 17 24 - - - - - Partly cloudy - 13.3 1016.1 0.0
21/04:02am SW 20 30 - - - - - - - 13.5 1015.9 0.0
21/04:00am SW 19 26 - - - - - - - 13.6 1015.9 0.0
21/03:30am SW 24 34 - - - - - Partly cloudy - 13.7 1015.8 0.0
21/03:14am SSW 20 30 - - - - - Partly cloudy - 13.7 1015.8 0.0
21/03:00am SSW 21 28 - - - - - Mostly cloudy - 14.0 1015.7 0.0
21/02:30am SW 20 29 - - - - - Partly cloudy - 13.9 1015.6 0.0
21/02:00am SSW 20 31 - - - - - Partly cloudy - 14.0 1015.6 0.0
21/01:58am SSW 20 31 - - - - - Partly cloudy - 13.8 1015.6 0.0
21/01:30am SW 22 27 - - - - - Partly cloudy - 14.0 1015.7 0.0
21/01:03am SW 24 34 - - - - - Partly cloudy - 13.3 1015.8 0.0
21/01:00am SW 24 31 - - - - - Partly cloudy - 14.1 1015.7 0.0
21/12:35am SW 19 29 - - - - - Partly cloudy - 14.7 1015.5 0.0
21/12:30am SW 19 27 - - - - - Partly cloudy - 14.5 1015.5 0.0
21/12:13am SW 18 28 - - - - - Partly cloudy - 14.4 1015.6 0.0
21/12:00am SW 20 29 - - - - - Mostly cloudy - 14.6 1015.7 0.0
 
Date/Time
EDT
Wind Sea
Height
m
Swell Vis
km
Cloud Weather Temp
°C
Press
hPa
Rain since
9am
mm
Dir  Spd
kts
Gust
kts
Height
m
Period
s
Dir
20/11:30pm SW 19 25 - - - - - Partly cloudy - 14.3 1015.5 0.0
20/11:00pm SW 21 26 - - - - - Partly cloudy - 14.1 1015.6 0.0
20/10:30pm SW 21 28 - - - - - Partly cloudy - 14.3 1015.6 0.0
20/10:00pm SW 22 28 - - - - - Partly cloudy - 14.3 1015.4 0.0
20/09:30pm SW 21 27 - - - - - Partly cloudy - 14.2 1014.9 0.0
20/09:00pm SW 21 26 - - - - - Cloudy - 13.9 1014.8 0.0
20/08:30pm SW 22 28 - - - - - Partly cloudy - 13.4 1014.6 0.0
20/08:17pm SW 21 27 - - - - - Partly cloudy - 13.4 1014.5 0.0
20/08:06pm SW 20 27 - - - - - Partly cloudy - 13.4 1014.4 0.0
20/08:00pm SW 20 26 - - - - - Partly cloudy - 13.5 1014.4 0.0
20/07:30pm SW 20 25 - - - - - Partly cloudy - 12.8 1014.2 0.0
20/07:00pm SW 21 26 - - - - - Partly cloudy - 14.0 1014.1 0.0
20/06:30pm SW 18 25 - - - - - Partly cloudy - 14.2 1014.0 0.0
20/06:00pm SW 19 24 - - - - - Mostly cloudy - 14.5 1014.0 0.0
20/05:30pm SW 20 25 - - - - - Partly cloudy - 15.2 1014.0 0.0
20/05:00pm SW 22 27 - - - - - Partly cloudy - 14.6 1014.3 0.0
20/04:30pm SW 22 26 - - - - - Partly cloudy - 14.0 1014.3 0.0
20/04:00pm SW 23 28 - - - - - Partly cloudy - 14.8 1014.3 0.0
20/03:30pm SW 21 27 - - - - - Cloudy - 14.0 1014.5 0.0
20/03:00pm SW 21 27 - - - - - Cloudy - 14.7 1014.5 0.0
20/02:30pm SW 21 26 - - - - - Partly cloudy - 14.3 1014.8 0.0
20/02:00pm SW 23 28 - - - - - Cloudy - 14.9 1014.7 0.0
20/01:30pm SW 22 27 - - - - - Partly cloudy - 13.9 1014.6 0.0
20/01:00pm SW 17 26 - - - - - Partly cloudy - 14.9 1014.6 0.0
20/12:30pm SW 19 25 - - - - - Cloudy - 14.3 1014.7 0.0
20/12:00pm SW 20 26 - - - - - Cloudy - 14.0 1014.9 0.0
20/11:30am SW 21 28 - - - - - Partly cloudy - 13.3 1014.9 0.0
20/11:00am SW 17 23 - - - - - Partly cloudy - 14.3 1014.8 0.0
20/10:30am SSW 18 26 - - - - - Cloudy - 14.1 1014.6 0.0
20/10:10am SW 19 29 - - - - - Partly cloudy - 13.8 1014.6 0.0
20/10:00am SW 20 27 - - - - - Partly cloudy - 13.4 1014.5 0.0
20/09:58am SW 20 30 - - - - - Partly cloudy - 13.5 1014.5 0.0

Other formats

Comma delimited format used in spreadsheet applications
http://www.bom.gov.au/fwo/IDV60701/IDV60701.95954.axf

JavaScript Object Notation format (JSON) in row-major order
http://www.bom.gov.au/fwo/IDV60701/IDV60701.95954.json

Data quality

Most of these data are generated automatically and are frequently updated. Quality checks on data are not normally performed. It is possible for incorrect values to appear. Refer to information at About Latest Weather Observations and please check the disclaimer before using these data.